createdAt,value
2017-01-19T16:42:33.533Z,-7.5
2017-01-19T16:42:54.841Z,-7.5
2017-01-19T16:43:16.132Z,-7.5
2017-01-19T16:43:37.420Z,-7.5
2017-01-19T16:43:58.717Z,-7.5
2017-01-19T16:44:20.020Z,-7.6
2017-01-19T16:44:41.307Z,-7.5
2017-01-19T16:45:02.584Z,-7.5
2017-01-19T16:45:23.880Z,-7.5
2017-01-19T16:45:45.175Z,-7.5
2017-01-19T16:46:06.486Z,-7.4
2017-01-19T16:46:27.787Z,-7.5
2017-01-19T16:46:49.113Z,-7.5
2017-01-19T16:47:10.416Z,-7.5
2017-01-19T16:47:31.809Z,-7.5
2017-01-19T16:47:53.121Z,-7.5
2017-01-19T16:48:14.456Z,-7.5
2017-01-19T16:48:35.747Z,-7.5
2017-01-19T16:48:57.108Z,-7.5
2017-01-19T16:49:18.417Z,-7.5
2017-01-19T16:49:39.695Z,-7.5
2017-01-19T16:50:01.017Z,-7.4
2017-01-19T16:50:22.811Z,-7.5
2017-01-19T16:50:44.108Z,-7.5
2017-01-19T16:51:05.415Z,-7.5
2017-01-19T16:51:26.735Z,-7.5
2017-01-19T16:51:48.036Z,-7.5
2017-01-19T16:52:09.364Z,-7.6
2017-01-19T16:52:30.659Z,-7.5
2017-01-19T16:52:51.954Z,-7.6
2017-01-19T16:53:13.268Z,-7.6
2017-01-19T16:53:34.562Z,-7.7
2017-01-19T16:53:55.852Z,-7.7
2017-01-19T16:54:17.212Z,-7.7
2017-01-19T16:54:38.501Z,-7.7
2017-01-19T16:54:59.792Z,-7.7
2017-01-19T16:55:21.129Z,-7.7
2017-01-19T16:55:42.459Z,-7.7
2017-01-19T16:56:03.744Z,-7.6
2017-01-19T16:56:25.042Z,-7.7
2017-01-19T16:56:46.396Z,-7.7
2017-01-19T16:57:07.706Z,-7.7
2017-01-19T16:57:29.025Z,-7.7
2017-01-19T16:57:50.326Z,-7.7
2017-01-19T16:58:11.615Z,-7.7
2017-01-19T16:58:32.925Z,-7.8
2017-01-19T16:58:54.232Z,-7.7
2017-01-19T16:59:15.530Z,-7.8
2017-01-19T16:59:36.843Z,-7.8
2017-01-19T16:59:58.125Z,-7.7
2017-01-19T17:00:19.482Z,-7.8
2017-01-19T17:00:40.826Z,-7.8
2017-01-19T17:01:02.146Z,-7.7
2017-01-19T17:01:23.459Z,-7.7
2017-01-19T17:01:44.754Z,-7.7
2017-01-19T17:02:06.060Z,-7.7
2017-01-19T17:02:27.387Z,-7.7
2017-01-19T17:02:48.683Z,-7.7
2017-01-19T17:03:09.986Z,-7.6
2017-01-19T17:03:31.404Z,-7.8
2017-01-19T17:03:52.692Z,-7.9
2017-01-19T17:04:13.996Z,-7.9
2017-01-19T17:04:35.295Z,-7.8
2017-01-19T17:04:56.602Z,-7.7
2017-01-19T17:05:17.910Z,-7.7
2017-01-19T17:05:39.203Z,-7.8
2017-01-19T17:06:00.493Z,-7.8
2017-01-19T17:06:21.813Z,-7.8
2017-01-19T17:06:43.103Z,-7.8
2017-01-19T17:07:04.396Z,-7.7
2017-01-19T17:07:25.716Z,-7.8
2017-01-19T17:07:47.076Z,-7.8
2017-01-19T17:08:08.367Z,-7.8
2017-01-19T17:08:29.642Z,-7.8
2017-01-19T17:08:51.269Z,-7.7
2017-01-19T17:09:12.595Z,-7.7
2017-01-19T17:09:33.887Z,-7.8
2017-01-19T17:09:55.201Z,-7.8
2017-01-19T17:10:16.495Z,-7.8
2017-01-19T17:10:37.799Z,-7.7
2017-01-19T17:10:59.069Z,-7.8
2017-01-19T17:11:20.370Z,-7.8
2017-01-19T17:11:41.709Z,-7.8
2017-01-19T17:12:03.000Z,-7.8
2017-01-19T17:12:24.472Z,-7.7
2017-01-19T17:12:45.771Z,-7.8
2017-01-19T17:13:07.051Z,-7.8
2017-01-19T17:13:28.337Z,-7.9
2017-01-19T17:13:49.675Z,-7.8
2017-01-19T17:14:10.966Z,-7.8
2017-01-19T17:14:32.261Z,-7.9
2017-01-19T17:14:53.560Z,-7.8
2017-01-19T17:15:14.868Z,-7.8
2017-01-19T17:15:36.164Z,-7.8
2017-01-19T17:15:57.454Z,-7.7
2017-01-19T17:16:18.755Z,-7.8
2017-01-19T17:16:40.053Z,-7.8
2017-01-19T17:17:01.349Z,-7.8
2017-01-19T17:17:22.648Z,-7.7
2017-01-19T17:17:43.952Z,-7.7
2017-01-19T17:18:05.281Z,-7.8
2017-01-19T17:18:26.564Z,-7.7
2017-01-19T17:18:47.854Z,-7.8
2017-01-19T17:19:09.768Z,-7.8
2017-01-19T17:19:31.068Z,-7.8
2017-01-19T17:19:52.364Z,-7.8
2017-01-19T17:20:13.666Z,-7.8
2017-01-19T17:20:34.951Z,-7.7
2017-01-19T17:20:56.236Z,-7.8
2017-01-19T17:21:17.545Z,-7.8
2017-01-19T17:21:38.837Z,-7.8
2017-01-19T17:22:00.168Z,-7.7
2017-01-19T17:22:21.460Z,-7.8
2017-01-19T17:22:42.738Z,-7.7
2017-01-19T17:23:04.030Z,-7.8
2017-01-19T17:23:25.337Z,-7.7
2017-01-19T17:23:46.621Z,-7.8
2017-01-19T17:24:07.920Z,-7.8
2017-01-19T17:24:29.210Z,-7.8
2017-01-19T17:24:50.509Z,-7.9
2017-01-19T17:25:11.839Z,-7.8
2017-01-19T17:25:33.148Z,-7.8
2017-01-19T17:25:54.415Z,-7.8
2017-01-19T17:26:15.712Z,-7.9
2017-01-19T17:26:37.005Z,-7.7
2017-01-19T17:26:58.304Z,-7.9
2017-01-19T17:27:19.604Z,-7.9
2017-01-19T17:27:40.891Z,-7.8
2017-01-19T17:28:02.188Z,-7.9
2017-01-19T17:28:23.493Z,-7.9
2017-01-19T17:28:44.809Z,-7.8
2017-01-19T17:29:06.117Z,-7.8
2017-01-19T17:29:27.412Z,-7.8
2017-01-19T17:29:48.706Z,-7.9
2017-01-19T17:30:10.052Z,-7.8
2017-01-19T17:30:31.339Z,-7.8
2017-01-19T17:30:52.633Z,-7.8
2017-01-19T17:31:13.936Z,-7.9
2017-01-19T17:31:35.219Z,-7.9
2017-01-19T17:31:56.509Z,-7.8
2017-01-19T17:32:17.798Z,-7.8
2017-01-19T17:32:39.074Z,-7.8
2017-01-19T17:33:00.364Z,-7.8
2017-01-19T17:33:21.682Z,-7.8
2017-01-19T17:33:42.976Z,-7.8
2017-01-19T17:34:04.274Z,-7.8
2017-01-19T17:34:25.571Z,-7.8
2017-01-19T17:34:46.847Z,-7.8
2017-01-19T17:35:08.136Z,-7.7
2017-01-19T17:35:29.442Z,-7.8
2017-01-19T17:35:50.727Z,-7.8
2017-01-19T17:36:12.017Z,-7.8
2017-01-19T17:36:33.322Z,-7.9
2017-01-19T17:36:54.606Z,-7.9
2017-01-19T17:37:15.909Z,-7.8
2017-01-19T17:37:37.223Z,-7.8
2017-01-19T17:37:58.496Z,-7.8
2017-01-19T17:38:19.843Z,-7.8
2017-01-19T17:38:41.160Z,-7.7
2017-01-19T17:39:02.442Z,-7.9
2017-01-19T17:39:23.731Z,-7.8
2017-01-19T17:39:45.027Z,-7.8
2017-01-19T17:40:06.319Z,-7.8
2017-01-19T17:40:27.626Z,-7.8
2017-01-19T17:40:48.899Z,-7.8
2017-01-19T17:41:10.199Z,-7.7
2017-01-19T17:41:31.515Z,-7.7
2017-01-19T17:41:52.829Z,-7.8
2017-01-19T17:42:14.155Z,-7.8
2017-01-19T17:42:35.442Z,-7.8
2017-01-19T17:42:56.764Z,-7.8
2017-01-19T17:43:18.067Z,-7.9
2017-01-19T17:43:39.364Z,-7.9
2017-01-19T17:44:00.661Z,-7.9
2017-01-19T17:44:21.953Z,-7.8
2017-01-19T17:44:43.289Z,-7.8
2017-01-19T17:45:04.578Z,-7.8
2017-01-19T17:45:25.873Z,-7.7
2017-01-19T17:45:47.158Z,-7.8
2017-01-19T17:46:08.511Z,-7.8
2017-01-19T17:46:29.813Z,-7.8
2017-01-19T17:46:51.115Z,-7.8
2017-01-19T17:47:12.446Z,-7.7
2017-01-19T17:47:33.745Z,-7.9
2017-01-19T17:47:55.029Z,-7.9
2017-01-19T17:48:16.311Z,-7.7
2017-01-19T17:48:37.626Z,-7.8
2017-01-19T17:48:58.936Z,-7.8
2017-01-19T17:49:20.229Z,-7.8
2017-01-19T17:49:41.521Z,-7.9
2017-01-19T17:50:02.827Z,-7.8
2017-01-19T17:50:24.100Z,-7.8
2017-01-19T17:50:45.408Z,-7.8
2017-01-19T17:51:06.692Z,-7.8
2017-01-19T17:51:27.991Z,-7.8
2017-01-19T17:51:49.302Z,-7.8
2017-01-19T17:52:10.621Z,-7.9
2017-01-19T17:52:31.921Z,-7.8
2017-01-19T17:52:53.269Z,-7.8
2017-01-19T17:53:14.571Z,-7.9
2017-01-19T17:53:35.871Z,-7.8
2017-01-19T17:53:57.170Z,-7.9
2017-01-19T17:54:18.468Z,-7.9
2017-01-19T17:54:39.760Z,-7.8
2017-01-19T17:55:01.047Z,-7.8
2017-01-19T17:55:22.336Z,-7.9
2017-01-19T17:55:43.639Z,-7.8
2017-01-19T17:56:04.980Z,-7.8
2017-01-19T17:56:26.273Z,-7.9
2017-01-19T17:56:47.568Z,-7.8
2017-01-19T17:57:08.866Z,-7.9
2017-01-19T17:57:30.156Z,-7.9
2017-01-19T17:57:51.448Z,-7.8
2017-01-19T17:58:12.751Z,-7.8
2017-01-19T17:58:34.045Z,-7.9
2017-01-19T17:58:55.336Z,-7.8
2017-01-19T17:59:16.630Z,-7.8
2017-01-19T17:59:37.933Z,-7.8
2017-01-19T17:59:59.242Z,-7.8
2017-01-19T18:00:20.536Z,-7.8
2017-01-19T18:00:41.820Z,-7.8
2017-01-19T18:01:03.123Z,-7.8
2017-01-19T18:01:24.451Z,-7.8
2017-01-19T18:01:45.741Z,-7.8
2017-01-19T18:02:07.040Z,-7.8
2017-01-19T18:02:28.326Z,-7.8
2017-01-19T18:02:49.620Z,-7.7
2017-01-19T18:03:10.941Z,-7.8
2017-01-19T18:03:32.235Z,-7.7
2017-01-19T18:03:53.542Z,-7.8
2017-01-19T18:04:14.824Z,-7.7
2017-01-19T18:04:36.108Z,-7.7
2017-01-19T18:04:57.392Z,-7.7
2017-01-19T18:05:18.946Z,-7.8
2017-01-19T18:05:40.281Z,-7.8
2017-01-19T18:06:01.560Z,-7.8
2017-01-19T18:06:22.838Z,-7.8
2017-01-19T18:06:44.130Z,-7.9
2017-01-19T18:07:05.433Z,-7.8
2017-01-19T18:07:26.747Z,-7.7
2017-01-19T18:07:48.036Z,-7.7
2017-01-19T18:08:09.324Z,-7.8
2017-01-19T18:08:30.629Z,-7.7
2017-01-19T18:08:51.928Z,-7.8
2017-01-19T18:09:13.273Z,-7.8
2017-01-19T18:09:34.558Z,-7.8
2017-01-19T18:09:55.849Z,-7.8
2017-01-19T18:10:17.142Z,-7.8
2017-01-19T18:10:38.453Z,-7.9
2017-01-19T18:10:59.751Z,-7.8
2017-01-19T18:11:21.049Z,-7.8
2017-01-19T18:11:42.333Z,-7.9
2017-01-19T18:12:03.619Z,-7.8
2017-01-19T18:12:24.917Z,-7.7
2017-01-19T18:12:46.206Z,-7.9
2017-01-19T18:13:07.500Z,-7.8
2017-01-19T18:13:28.790Z,-7.8
2017-01-19T18:13:50.066Z,-7.8
2017-01-19T18:14:11.384Z,-7.8
2017-01-19T18:14:32.670Z,-7.7
2017-01-19T18:14:53.953Z,-7.8
2017-01-19T18:15:15.259Z,-7.8
2017-01-19T18:15:36.585Z,-7.8
2017-01-19T18:15:57.880Z,-7.8
2017-01-19T18:16:19.169Z,-7.8
2017-01-19T18:16:40.458Z,-7.8
2017-01-19T18:17:01.757Z,-7.8
2017-01-19T18:17:23.065Z,-7.8
2017-01-19T18:17:44.643Z,-8
2017-01-19T18:18:06.150Z,-7.8
2017-01-19T18:18:27.453Z,-8
2017-01-19T18:18:48.750Z,-7.9
2017-01-19T18:19:10.054Z,-7.9
2017-01-19T18:19:31.360Z,-7.9
2017-01-19T18:19:52.666Z,-8.1
2017-01-19T18:20:13.969Z,-8.1
2017-01-19T18:20:35.259Z,-8
2017-01-19T18:20:56.549Z,-7.9
2017-01-19T18:21:17.840Z,-8
2017-01-19T18:21:39.152Z,-8.1
2017-01-19T18:22:00.464Z,-8.1
2017-01-19T18:22:21.745Z,-8.1
2017-01-19T18:22:43.046Z,-8.2
2017-01-19T18:23:04.349Z,-8.1
2017-01-19T18:23:25.639Z,-8
2017-01-19T18:23:46.928Z,-8.1
2017-01-19T18:24:08.247Z,-8.1
2017-01-19T18:24:29.537Z,-8.2
2017-01-19T18:24:50.861Z,-8.1
2017-01-19T18:25:12.156Z,-8.2
2017-01-19T18:25:33.432Z,-8.2
2017-01-19T18:25:54.715Z,-8.2
2017-01-19T18:26:16.009Z,-8.2
2017-01-19T18:26:37.292Z,-8.3
2017-01-19T18:26:58.569Z,-8.3
2017-01-19T18:27:19.864Z,-8.5
2017-01-19T18:27:41.153Z,-8.5
2017-01-19T18:28:02.450Z,-8.4
2017-01-19T18:28:23.738Z,-8.4
2017-01-19T18:28:45.018Z,-8.4
2017-01-19T18:29:06.323Z,-8.4
2017-01-19T18:29:27.616Z,-8.5
2017-01-19T18:29:48.940Z,-8.5
2017-01-19T18:30:10.267Z,-8.4
2017-01-19T18:30:31.572Z,-8.3
2017-01-19T18:30:52.864Z,-8.3
2017-01-19T18:31:14.153Z,-8.3
2017-01-19T18:31:35.477Z,-8.3
2017-01-19T18:31:56.769Z,-8.3
2017-01-19T18:32:18.086Z,-8.2
2017-01-19T18:32:39.422Z,-8.2
2017-01-19T18:33:00.730Z,-8.3
2017-01-19T18:33:22.045Z,-8.3
2017-01-19T18:33:43.334Z,-8.3
2017-01-19T18:34:04.636Z,-8.2
2017-01-19T18:34:25.928Z,-8.3
2017-01-19T18:34:47.239Z,-8.3
2017-01-19T18:35:08.911Z,-8.3
2017-01-19T18:35:30.211Z,-8.3
2017-01-19T18:35:51.526Z,-8.3
2017-01-19T18:36:12.831Z,-8.2
2017-01-19T18:36:34.108Z,-8.3
2017-01-19T18:36:55.403Z,-8.2
2017-01-19T18:37:16.727Z,-8.3
2017-01-19T18:37:38.031Z,-8.3
2017-01-19T18:37:59.338Z,-8.3
2017-01-19T18:38:20.644Z,-8.2
2017-01-19T18:38:41.934Z,-8.2
2017-01-19T18:39:03.243Z,-8.3
2017-01-19T18:39:24.534Z,-8.3
2017-01-19T18:39:45.820Z,-8.4
2017-01-19T18:40:07.122Z,-8.3
2017-01-19T18:40:28.412Z,-8.3
2017-01-19T18:40:49.724Z,-8.4
2017-01-19T18:41:11.048Z,-8.4
2017-01-19T18:41:32.337Z,-8.3
2017-01-19T18:41:53.631Z,-8.3
2017-01-19T18:42:14.914Z,-8.3
2017-01-19T18:42:36.205Z,-8.3
2017-01-19T18:42:57.743Z,-8.5
2017-01-19T18:43:19.054Z,-8.4
2017-01-19T18:43:40.343Z,-8.3
2017-01-19T18:44:01.619Z,-8.3
2017-01-19T18:44:22.969Z,-8.3
2017-01-19T18:44:44.258Z,-8.3
2017-01-19T18:45:05.560Z,-8.2
2017-01-19T18:45:26.866Z,-8.3
2017-01-19T18:45:48.146Z,-8.3
2017-01-19T18:46:09.445Z,-8.3
2017-01-19T18:46:30.733Z,-8.2
2017-01-19T18:46:52.030Z,-8.3
2017-01-19T18:47:13.349Z,-8.2
2017-01-19T18:47:34.656Z,-8.3
2017-01-19T18:47:55.959Z,-8.3
2017-01-19T18:48:17.260Z,-8.3
2017-01-19T18:48:38.551Z,-8.4
2017-01-19T18:48:59.838Z,-8.4
2017-01-19T18:49:21.131Z,-8.4
2017-01-19T18:49:42.421Z,-8.3
2017-01-19T18:50:03.707Z,-8.4
2017-01-19T18:50:25.004Z,-8.4
2017-01-19T18:50:46.326Z,-8.4
2017-01-19T18:51:07.602Z,-8.4
2017-01-19T18:51:28.893Z,-8.4
2017-01-19T18:51:50.182Z,-8.4
2017-01-19T18:52:11.489Z,-8.4
2017-01-19T18:52:32.773Z,-8.4
2017-01-19T18:52:54.076Z,-8.5
2017-01-19T18:53:15.373Z,-8.4
2017-01-19T18:53:36.656Z,-8.5
2017-01-19T18:53:57.948Z,-8.4
2017-01-19T18:54:19.231Z,-8.4
2017-01-19T18:54:40.541Z,-8.4
2017-01-19T18:55:01.827Z,-8.5
2017-01-19T18:55:23.129Z,-8.5
2017-01-19T18:55:44.429Z,-8.3
2017-01-19T18:56:05.731Z,-8.4
2017-01-19T18:56:27.071Z,-8.4
2017-01-19T18:56:48.366Z,-8.4
2017-01-19T18:57:09.669Z,-8.4
2017-01-19T18:57:30.968Z,-8.4
2017-01-19T18:57:52.263Z,-8.5
2017-01-19T18:58:13.546Z,-8.4
2017-01-19T18:58:34.848Z,-8.5
2017-01-19T18:58:56.158Z,-8.4
2017-01-19T18:59:17.450Z,-8.5
2017-01-19T18:59:38.747Z,-8.4
2017-01-19T19:00:00.037Z,-8.4
2017-01-19T19:00:21.366Z,-8.4
2017-01-19T19:00:42.707Z,-8.5
2017-01-19T19:01:04.011Z,-8.4
2017-01-19T19:01:25.333Z,-8.5
2017-01-19T19:01:46.633Z,-8.5
2017-01-19T19:02:07.925Z,-8.5
2017-01-19T19:02:29.225Z,-8.5
2017-01-19T19:02:50.519Z,-8.5
2017-01-19T19:03:11.803Z,-8.5
2017-01-19T19:03:33.102Z,-8.5
2017-01-19T19:03:54.411Z,-8.4
2017-01-19T19:04:15.703Z,-8.4
2017-01-19T19:04:37.022Z,-8.3
2017-01-19T19:04:58.316Z,-8.4
2017-01-19T19:05:19.615Z,-8.4
2017-01-19T19:05:40.904Z,-8.5
2017-01-19T19:06:02.214Z,-8.4
2017-01-19T19:06:23.521Z,-8.4
2017-01-19T19:06:44.825Z,-8.3
2017-01-19T19:07:06.127Z,-8.3
2017-01-19T19:07:27.978Z,-8.3
2017-01-19T19:07:49.308Z,-8.3
2017-01-19T19:08:10.592Z,-8.3
2017-01-19T19:08:31.896Z,-8.3
2017-01-19T19:08:53.239Z,-8.3
2017-01-19T19:09:14.534Z,-8.3
2017-01-19T19:09:35.830Z,-8.3
2017-01-19T19:09:57.143Z,-8.4
2017-01-19T19:10:18.442Z,-8.5
2017-01-19T19:10:39.726Z,-8.4
2017-01-19T19:11:01.010Z,-8.5
2017-01-19T19:11:22.306Z,-8.4
2017-01-19T19:11:43.590Z,-8.5
2017-01-19T19:12:04.885Z,-8.5
2017-01-19T19:12:26.177Z,-8.5
2017-01-19T19:12:48.068Z,-8.5
2017-01-19T19:13:09.353Z,-8.4
2017-01-19T19:13:30.648Z,-8.5
2017-01-19T19:13:51.950Z,-8.6
2017-01-19T19:14:13.255Z,-8.6
2017-01-19T19:14:34.548Z,-8.6
2017-01-19T19:14:55.842Z,-8.5
2017-01-19T19:15:17.128Z,-8.6
2017-01-19T19:15:38.430Z,-8.6
2017-01-19T19:15:59.740Z,-8.6
2017-01-19T19:16:21.155Z,-8.6
2017-01-19T19:16:42.494Z,-8.6
2017-01-19T19:17:03.835Z,-8.6
2017-01-19T19:17:25.209Z,-8.6
2017-01-19T19:17:46.590Z,-8.6
2017-01-19T19:18:07.962Z,-8.6
2017-01-19T19:18:29.387Z,-8.6
2017-01-19T19:18:50.694Z,-8.6
2017-01-19T19:19:11.989Z,-8.6
2017-01-19T19:19:33.279Z,-8.6
2017-01-19T19:19:54.565Z,-8.6
2017-01-19T19:20:15.854Z,-8.6
2017-01-19T19:20:37.143Z,-8.7
2017-01-19T19:20:58.443Z,-8.7
2017-01-19T19:21:19.757Z,-8.7
2017-01-19T19:21:41.055Z,-8.6
2017-01-19T19:22:02.351Z,-8.6
2017-01-19T19:22:23.650Z,-8.6
2017-01-19T19:22:44.932Z,-8.7
2017-01-19T19:23:06.215Z,-8.7
2017-01-19T19:23:27.508Z,-8.7
2017-01-19T19:23:48.783Z,-8.7
2017-01-19T19:24:10.074Z,-8.6
2017-01-19T19:24:31.358Z,-8.6
2017-01-19T19:24:52.666Z,-8.6
2017-01-19T19:25:13.982Z,-8.5
2017-01-19T19:25:35.360Z,-8.6
2017-01-19T19:25:56.915Z,-8.5
2017-01-19T19:26:18.197Z,-8.6
2017-01-19T19:26:39.496Z,-8.5
2017-01-19T19:27:00.805Z,-8.6
2017-01-19T19:27:22.087Z,-8.5
2017-01-19T19:27:43.390Z,-8.5
2017-01-19T19:28:04.711Z,-8.6
2017-01-19T19:28:25.987Z,-8.6
2017-01-19T19:28:47.295Z,-8.6
2017-01-19T19:29:08.593Z,-8.5
2017-01-19T19:29:29.929Z,-8.6
2017-01-19T19:29:51.215Z,-8.6
2017-01-19T19:30:12.513Z,-8.6
2017-01-19T19:30:33.793Z,-8.6
2017-01-19T19:30:55.086Z,-8.6
2017-01-19T19:31:16.388Z,-8.5
2017-01-19T19:31:37.677Z,-8.6
2017-01-19T19:31:58.983Z,-8.5
2017-01-19T19:32:20.272Z,-8.6
2017-01-19T19:32:41.576Z,-8.5
2017-01-19T19:33:02.867Z,-8.6
2017-01-19T19:33:24.166Z,-8.5
2017-01-19T19:33:45.470Z,-8.6
2017-01-19T19:34:06.776Z,-8.5
2017-01-19T19:34:28.080Z,-8.5
2017-01-19T19:34:49.401Z,-8.6
2017-01-19T19:35:10.737Z,-8.6
2017-01-19T19:35:32.021Z,-8.6
2017-01-19T19:35:53.322Z,-8.6
2017-01-19T19:36:14.615Z,-8.6
2017-01-19T19:36:35.909Z,-8.5
2017-01-19T19:36:57.205Z,-8.6
2017-01-19T19:37:18.495Z,-8.5
2017-01-19T19:37:39.800Z,-8.6
2017-01-19T19:38:01.109Z,-8.6
2017-01-19T19:38:22.404Z,-8.6
2017-01-19T19:38:43.708Z,-8.6
2017-01-19T19:39:05.079Z,-8.6
2017-01-19T19:39:26.370Z,-8.6
2017-01-19T19:39:47.669Z,-8.6
2017-01-19T19:40:08.964Z,-8.5
2017-01-19T19:40:30.244Z,-8.6
2017-01-19T19:40:51.533Z,-8.5
2017-01-19T19:41:12.830Z,-8.6
2017-01-19T19:41:34.143Z,-8.7
2017-01-19T19:41:55.428Z,-8.7
2017-01-19T19:42:16.740Z,-8.7
2017-01-19T19:42:38.058Z,-8.5
2017-01-19T19:42:59.378Z,-8.6
2017-01-19T19:43:20.673Z,-8.6
2017-01-19T19:43:41.981Z,-8.6
2017-01-19T19:44:03.268Z,-8.6
2017-01-19T19:44:24.706Z,-8.6
2017-01-19T19:44:46.029Z,-8.6
2017-01-19T19:45:07.316Z,-8.6
2017-01-19T19:45:28.605Z,-8.6
2017-01-19T19:45:49.896Z,-8.6
2017-01-19T19:46:11.198Z,-8.6
2017-01-19T19:46:32.487Z,-8.5
2017-01-19T19:46:53.840Z,-8.6
2017-01-19T19:47:15.134Z,-8.6
2017-01-19T19:47:36.441Z,-8.6
2017-01-19T19:47:57.719Z,-8.6
2017-01-19T19:48:19.028Z,-8.6
2017-01-19T19:48:40.331Z,-8.6
2017-01-19T19:49:01.615Z,-8.6
2017-01-19T19:49:22.903Z,-8.5
2017-01-19T19:49:44.186Z,-8.6
2017-01-19T19:50:05.494Z,-8.6
2017-01-19T19:50:26.783Z,-8.6
2017-01-19T19:50:48.069Z,-8.7
2017-01-19T19:51:09.370Z,-8.6
2017-01-19T19:51:30.738Z,-8.6
2017-01-19T19:51:52.256Z,-8.6
2017-01-19T19:52:13.585Z,-8.7
2017-01-19T19:52:34.957Z,-8.6
2017-01-19T19:52:56.439Z,-8.5
2017-01-19T19:53:17.748Z,-8.5
2017-01-19T19:53:39.389Z,-8.6
2017-01-19T19:54:00.755Z,-8.6
2017-01-19T19:54:22.055Z,-8.7
2017-01-19T19:54:43.447Z,-8.5
2017-01-19T19:55:04.761Z,-8.6
2017-01-19T19:55:26.252Z,-8.5
2017-01-19T19:55:47.566Z,-8.6
2017-01-19T19:56:08.873Z,-8.6
2017-01-19T19:56:30.139Z,-8.5
2017-01-19T19:56:51.739Z,-8.6
2017-01-19T19:57:13.023Z,-8.5
2017-01-19T19:57:34.457Z,-8.5
2017-01-19T19:57:55.817Z,-8.5
2017-01-19T19:58:17.097Z,-8.5
2017-01-19T19:58:38.473Z,-8.5
2017-01-19T19:58:59.791Z,-8.6
2017-01-19T19:59:21.213Z,-8.5
2017-01-19T19:59:42.514Z,-8.6
2017-01-19T20:00:03.840Z,-8.5
2017-01-19T20:00:25.129Z,-8.6
2017-01-19T20:00:46.421Z,-8.6
2017-01-19T20:01:07.703Z,-8.6
2017-01-19T20:01:29.063Z,-8.6
2017-01-19T20:01:50.352Z,-8.6
2017-01-19T20:02:11.704Z,-8.6
2017-01-19T20:02:32.995Z,-8.6
2017-01-19T20:02:54.470Z,-8.6
2017-01-19T20:03:15.868Z,-8.6
2017-01-19T20:03:37.217Z,-8.6
2017-01-19T20:03:58.660Z,-8.6
2017-01-19T20:04:19.972Z,-8.6
2017-01-19T20:04:41.507Z,-8.6
2017-01-19T20:05:02.857Z,-8.5
2017-01-19T20:05:24.333Z,-8.5
2017-01-19T20:05:45.629Z,-8.5
2017-01-19T20:06:06.945Z,-8.5
2017-01-19T20:06:28.408Z,-8.4
2017-01-19T20:06:49.747Z,-8.4
2017-01-19T20:07:11.262Z,-8.4
2017-01-19T20:07:32.740Z,-8.5
2017-01-19T20:07:54.305Z,-8.3
2017-01-19T20:08:15.620Z,-8.4
2017-01-19T20:08:36.918Z,-8.4
2017-01-19T20:08:58.290Z,-8.5
2017-01-19T20:09:19.745Z,-8.4
2017-01-19T20:09:41.025Z,-8.5
2017-01-19T20:10:02.315Z,-8.5
2017-01-19T20:10:23.644Z,-8.4
2017-01-19T20:10:44.963Z,-8.5
2017-01-19T20:11:06.264Z,-8.4
2017-01-19T20:11:27.665Z,-8.3
2017-01-19T20:11:48.985Z,-8.3
2017-01-19T20:12:10.280Z,-8.4
2017-01-19T20:12:31.595Z,-8.3
2017-01-19T20:12:52.893Z,-8.3
2017-01-19T20:13:14.207Z,-8.3
2017-01-19T20:13:35.524Z,-8.3
2017-01-19T20:13:56.840Z,-8.2
2017-01-19T20:14:18.148Z,-8.3
2017-01-19T20:14:39.429Z,-8.3
2017-01-19T20:15:00.727Z,-8.3
2017-01-19T20:15:22.017Z,-8.3
2017-01-19T20:15:43.330Z,-8.3
2017-01-19T20:16:04.620Z,-8.3
2017-01-19T20:16:25.910Z,-8.3
2017-01-19T20:16:47.207Z,-8.1
2017-01-19T20:17:08.512Z,-8.1
2017-01-19T20:17:29.787Z,-8.1
2017-01-19T20:17:51.142Z,-8.1
2017-01-19T20:18:12.468Z,-8.1
2017-01-19T20:18:33.760Z,-8.2
2017-01-19T20:18:55.058Z,-8.2
2017-01-19T20:19:16.360Z,-8
2017-01-19T20:19:37.671Z,-8.1
2017-01-19T20:19:59.134Z,-8
2017-01-19T20:20:20.531Z,-8
2017-01-19T20:20:41.862Z,-8
2017-01-19T20:21:03.192Z,-8.1
2017-01-19T20:21:24.522Z,-8
2017-01-19T20:21:45.926Z,-8.1
2017-01-19T20:22:07.252Z,-8.1
2017-01-19T20:22:28.762Z,-8
2017-01-19T20:22:50.191Z,-8
2017-01-19T20:23:11.504Z,-8
2017-01-19T20:23:32.789Z,-8
2017-01-19T20:23:54.102Z,-8
2017-01-19T20:24:15.401Z,-7.9
2017-01-19T20:24:36.838Z,-7.9
2017-01-19T20:24:58.304Z,-7.9
2017-01-19T20:25:19.665Z,-7.9
2017-01-19T20:25:41.011Z,-7.8
2017-01-19T20:26:02.340Z,-7.9
2017-01-19T20:26:23.645Z,-8
2017-01-19T20:26:44.948Z,-7.8
2017-01-19T20:27:06.297Z,-7.9
2017-01-19T20:27:27.591Z,-7.9
2017-01-19T20:27:50.670Z,-7.9
2017-01-19T20:28:12.513Z,-7.9
2017-01-19T20:28:33.867Z,-7.8
2017-01-19T20:28:55.197Z,-7.8
2017-01-19T20:29:16.505Z,-7.7
2017-01-19T20:29:37.831Z,-7.9
2017-01-19T20:29:59.153Z,-7.8
2017-01-19T20:30:20.453Z,-7.7
2017-01-19T20:30:41.759Z,-7.7
2017-01-19T20:31:03.073Z,-7.8
2017-01-19T20:31:24.376Z,-7.8
2017-01-19T20:31:45.678Z,-7.7
2017-01-19T20:32:06.981Z,-7.8
2017-01-19T20:32:28.291Z,-7.8
2017-01-19T20:32:49.581Z,-7.7
2017-01-19T20:33:10.877Z,-7.7
2017-01-19T20:33:32.173Z,-7.7
2017-01-19T20:33:53.535Z,-7.7
2017-01-19T20:34:14.847Z,-7.7
2017-01-19T20:34:36.167Z,-7.6
2017-01-19T20:34:57.483Z,-7.6
2017-01-19T20:35:18.813Z,-7.6
2017-01-19T20:35:40.113Z,-7.7
2017-01-19T20:36:01.409Z,-7.6
2017-01-19T20:36:22.710Z,-7.6
2017-01-19T20:36:44.010Z,-7.6
2017-01-19T20:37:05.320Z,-7.5
2017-01-19T20:37:26.625Z,-7.5
2017-01-19T20:37:47.955Z,-7.6
2017-01-19T20:38:09.334Z,-7.6
2017-01-19T20:38:30.663Z,-7.6
2017-01-19T20:38:52.001Z,-7.5
2017-01-19T20:39:13.300Z,-7.5
2017-01-19T20:39:34.588Z,-7.5
2017-01-19T20:39:55.892Z,-7.5
2017-01-19T20:40:17.231Z,-7.5
2017-01-19T20:40:38.564Z,-7.5
2017-01-19T20:40:59.878Z,-7.6
2017-01-19T20:41:21.190Z,-7.6
2017-01-19T20:41:42.522Z,-7.5
2017-01-19T20:42:03.828Z,-7.6
2017-01-19T20:42:25.144Z,-7.6
2017-01-19T20:42:46.453Z,-7.5
2017-01-19T20:43:07.770Z,-7.6
2017-01-19T20:43:29.092Z,-7.5
2017-01-19T20:43:50.420Z,-7.5
2017-01-19T20:44:11.743Z,-7.5
2017-01-19T20:44:33.059Z,-7.4
2017-01-19T20:44:54.365Z,-7.5
2017-01-19T20:45:15.646Z,-7.7
2017-01-19T20:45:36.963Z,-7.6
2017-01-19T20:45:58.249Z,-7.7
2017-01-19T20:46:19.626Z,-7.7
2017-01-19T20:46:40.946Z,-7.7
2017-01-19T20:47:02.259Z,-7.8
2017-01-19T20:47:23.591Z,-7.7
2017-01-19T20:47:44.893Z,-7.9
2017-01-19T20:48:06.195Z,-7.8
2017-01-19T20:48:27.559Z,-7.8
2017-01-19T20:48:48.866Z,-7.8
2017-01-19T20:49:10.163Z,-7.8
2017-01-19T20:49:31.480Z,-7.9
2017-01-19T20:49:52.789Z,-7.8
2017-01-19T20:50:14.117Z,-7.9
2017-01-19T20:50:35.402Z,-7.8
2017-01-19T20:50:56.704Z,-7.9
2017-01-19T20:51:18.015Z,-7.9
2017-01-19T20:51:39.342Z,-7.9
2017-01-19T20:52:00.656Z,-7.9
2017-01-19T20:52:21.948Z,-8.1
2017-01-19T20:52:43.278Z,-8
2017-01-19T20:53:04.567Z,-8.1
2017-01-19T20:53:25.878Z,-8.1
2017-01-19T20:53:47.173Z,-8.1
2017-01-19T20:54:08.546Z,-8.2
2017-01-19T20:54:29.862Z,-8.1
2017-01-19T20:54:51.186Z,-8.2
2017-01-19T20:55:12.506Z,-8.3
2017-01-19T20:55:33.815Z,-8.3
2017-01-19T20:55:55.157Z,-8.4
2017-01-19T20:56:16.444Z,-8.4
2017-01-19T20:56:37.731Z,-8.4
2017-01-19T20:56:59.047Z,-8.4
2017-01-19T20:57:20.389Z,-8.5
2017-01-19T20:57:41.711Z,-8.5
2017-01-19T20:58:03.022Z,-8.5
2017-01-19T20:58:24.314Z,-8.5
2017-01-19T20:58:45.600Z,-8.5
2017-01-19T20:59:06.946Z,-8.5
2017-01-19T20:59:28.232Z,-8.5
2017-01-19T20:59:49.520Z,-8.5
2017-01-19T21:00:10.840Z,-8.5
2017-01-19T21:00:32.129Z,-8.5
2017-01-19T21:00:53.416Z,-8.5
2017-01-19T21:01:14.779Z,-8.4
2017-01-19T21:01:36.060Z,-8.5
2017-01-19T21:01:57.358Z,-8.4
2017-01-19T21:02:18.669Z,-8.5
2017-01-19T21:02:40.019Z,-8.5
2017-01-19T21:03:01.319Z,-8.5
2017-01-19T21:03:22.649Z,-8.5
2017-01-19T21:03:43.967Z,-8.5
2017-01-19T21:04:05.285Z,-8.6
2017-01-19T21:04:26.630Z,-8.6
2017-01-19T21:04:47.912Z,-8.6
2017-01-19T21:05:09.190Z,-8.5
2017-01-19T21:05:30.527Z,-8.5
2017-01-19T21:05:51.805Z,-8.5
2017-01-19T21:06:13.139Z,-8.5
2017-01-19T21:06:34.482Z,-8.6
2017-01-19T21:06:55.938Z,-8.5
2017-01-19T21:07:17.264Z,-8.5
2017-01-19T21:07:38.616Z,-8.6
2017-01-19T21:07:59.960Z,-8.5
2017-01-19T21:08:21.248Z,-8.6
2017-01-19T21:08:42.592Z,-8.5
2017-01-19T21:09:03.877Z,-8.5
2017-01-19T21:09:25.209Z,-8.6
2017-01-19T21:09:46.565Z,-8.5
2017-01-19T21:10:07.845Z,-8.5
2017-01-19T21:10:29.175Z,-8.5
2017-01-19T21:10:50.460Z,-8.5
2017-01-19T21:11:12.506Z,-8.5
2017-01-19T21:11:33.797Z,-8.5
2017-01-19T21:11:55.079Z,-8.6
2017-01-19T21:12:16.372Z,-8.6
2017-01-19T21:12:37.662Z,-8.6
2017-01-19T21:12:59.014Z,-8.5
2017-01-19T21:13:20.308Z,-8.5
2017-01-19T21:13:41.599Z,-8.6
2017-01-19T21:14:02.891Z,-8.6
2017-01-19T21:14:24.178Z,-8.4
2017-01-19T21:14:45.472Z,-8.4
2017-01-19T21:15:06.783Z,-8.5
2017-01-19T21:15:28.072Z,-8.4
2017-01-19T21:15:49.361Z,-8.3
2017-01-19T21:16:10.668Z,-8.3
2017-01-19T21:16:31.964Z,-8.2
2017-01-19T21:16:53.254Z,-8.3
2017-01-19T21:17:14.544Z,-8.4
2017-01-19T21:17:35.829Z,-8.4
2017-01-19T21:17:57.141Z,-8.3
2017-01-19T21:18:18.432Z,-8.3
2017-01-19T21:18:39.734Z,-8.2
2017-01-19T21:19:01.012Z,-8.1
2017-01-19T21:19:22.315Z,-8.1
2017-01-19T21:19:43.631Z,-8.1
2017-01-19T21:20:04.920Z,-8.1
2017-01-19T21:20:26.237Z,-8.1
2017-01-19T21:20:47.555Z,-8.1
2017-01-19T21:21:08.845Z,-8.1
2017-01-19T21:21:30.131Z,-8.1
2017-01-19T21:21:51.411Z,-8.1
2017-01-19T21:22:12.698Z,-8
2017-01-19T21:22:34.004Z,-8
2017-01-19T21:22:55.289Z,-8
2017-01-19T21:23:16.595Z,-7.9
2017-01-19T21:23:37.895Z,-7.9
2017-01-19T21:23:59.182Z,-7.9
2017-01-19T21:24:20.467Z,-7.9
2017-01-19T21:24:41.764Z,-7.9
2017-01-19T21:25:03.061Z,-7.9
2017-01-19T21:25:24.347Z,-7.8
2017-01-19T21:25:45.643Z,-7.8
2017-01-19T21:26:06.917Z,-7.9
2017-01-19T21:26:28.194Z,-7.8